sensor_id;sensor_type;location;lat;lon;timestamp;temperature;humidity
82868;DHT22;72629;51.206;4.424;2023-10-19T00:02:06;16.80;90.30
82868;DHT22;72629;51.206;4.424;2023-10-19T00:04:33;16.80;90.30
82868;DHT22;72629;51.206;4.424;2023-10-19T00:07:01;16.80;90.30
82868;DHT22;72629;51.206;4.424;2023-10-19T00:09:30;16.80;90.10
82868;DHT22;72629;51.206;4.424;2023-10-19T00:12:02;16.90;89.90
82868;DHT22;72629;51.206;4.424;2023-10-19T00:14:28;16.80;90.00
82868;DHT22;72629;51.206;4.424;2023-10-19T00:16:54;16.80;90.00
82868;DHT22;72629;51.206;4.424;2023-10-19T00:19:25;16.80;89.80
82868;DHT22;72629;51.206;4.424;2023-10-19T00:21:54;16.80;90.00
82868;DHT22;72629;51.206;4.424;2023-10-19T00:24:34;16.80;89.90
82868;DHT22;72629;51.206;4.424;2023-10-19T00:26:59;16.80;89.80
82868;DHT22;72629;51.206;4.424;2023-10-19T00:29:33;16.80;89.90
82868;DHT22;72629;51.206;4.424;2023-10-19T00:32:05;16.80;89.90
82868;DHT22;72629;51.206;4.424;2023-10-19T00:34:32;16.80;89.70
82868;DHT22;72629;51.206;4.424;2023-10-19T00:36:59;16.80;89.30
82868;DHT22;72629;51.206;4.424;2023-10-19T00:39:36;16.90;88.90
82868;DHT22;72629;51.206;4.424;2023-10-19T00:42:23;16.90;89.00
82868;DHT22;72629;51.206;4.424;2023-10-19T00:44:56;16.90;88.80
82868;DHT22;72629;51.206;4.424;2023-10-19T00:47:29;16.90;88.30
82868;DHT22;72629;51.206;4.424;2023-10-19T00:50:06;16.90;88.70
82868;DHT22;72629;51.206;4.424;2023-10-19T00:52:38;16.90;88.40
82868;DHT22;72629;51.206;4.424;2023-10-19T00:55:10;16.80;88.40
82868;DHT22;72629;51.206;4.424;2023-10-19T00:57:40;16.90;88.60
82868;DHT22;72629;51.206;4.424;2023-10-19T01:00:11;16.80;88.60
82868;DHT22;72629;51.206;4.424;2023-10-19T01:02:38;16.90;88.50
82868;DHT22;72629;51.206;4.424;2023-10-19T01:05:09;16.90;88.60
82868;DHT22;72629;51.206;4.424;2023-10-19T01:07:39;16.90;88.60
82868;DHT22;72629;51.206;4.424;2023-10-19T01:10:07;16.90;88.40
82868;DHT22;72629;51.206;4.424;2023-10-19T01:12:46;16.80;88.60
82868;DHT22;72629;51.206;4.424;2023-10-19T01:15:14;16.80;88.60
82868;DHT22;72629;51.206;4.424;2023-10-19T01:17:40;16.80;88.80
82868;DHT22;72629;51.206;4.424;2023-10-19T01:20:10;16.80;88.80
82868;DHT22;72629;51.206;4.424;2023-10-19T01:23:07;16.90;88.80
82868;DHT22;72629;51.206;4.424;2023-10-19T01:25:45;16.80;88.80
82868;DHT22;72629;51.206;4.424;2023-10-19T01:31:08;16.80;88.80
82868;DHT22;72629;51.206;4.424;2023-10-19T01:33:39;16.80;88.80
82868;DHT22;72629;51.206;4.424;2023-10-19T01:36:05;16.80;88.80
82868;DHT22;72629;51.206;4.424;2023-10-19T01:38:38;16.90;88.60
82868;DHT22;72629;51.206;4.424;2023-10-19T01:41:05;16.90;88.00
82868;DHT22;72629;51.206;4.424;2023-10-19T01:43:42;16.90;88.00
82868;DHT22;72629;51.206;4.424;2023-10-19T01:46:09;16.90;87.30
82868;DHT22;72629;51.206;4.424;2023-10-19T01:48:42;17.00;86.50
82868;DHT22;72629;51.206;4.424;2023-10-19T01:51:10;16.90;86.10
82868;DHT22;72629;51.206;4.424;2023-10-19T01:53:40;16.90;86.20
82868;DHT22;72629;51.206;4.424;2023-10-19T01:56:10;16.90;85.70
82868;DHT22;72629;51.206;4.424;2023-10-19T01:58:37;16.90;86.40
82868;DHT22;72629;51.206;4.424;2023-10-19T02:01:03;16.90;86.60
82868;DHT22;72629;51.206;4.424;2023-10-19T02:03:34;16.80;86.40
82868;DHT22;72629;51.206;4.424;2023-10-19T02:06:04;16.90;86.10
82868;DHT22;72629;51.206;4.424;2023-10-19T02:09:24;16.90;86.10
82868;DHT22;72629;51.206;4.424;2023-10-19T02:11:56;16.80;86.10
82868;DHT22;72629;51.206;4.424;2023-10-19T02:14:23;16.90;86.40
82868;DHT22;72629;51.206;4.424;2023-10-19T02:16:53;16.80;86.20
82868;DHT22;72629;51.206;4.424;2023-10-19T02:19:23;16.90;86.20
82868;DHT22;72629;51.206;4.424;2023-10-19T02:21:50;16.80;86.20
82868;DHT22;72629;51.206;4.424;2023-10-19T02:24:18;16.80;86.40
82868;DHT22;72629;51.206;4.424;2023-10-19T02:26:45;16.80;86.40
82868;DHT22;72629;51.206;4.424;2023-10-19T02:29:12;16.80;86.40
82868;DHT22;72629;51.206;4.424;2023-10-19T02:31:41;16.80;86.20
82868;DHT22;72629;51.206;4.424;2023-10-19T02:34:08;16.80;86.20
82868;DHT22;72629;51.206;4.424;2023-10-19T02:36:36;16.90;86.60
82868;DHT22;72629;51.206;4.424;2023-10-19T02:39:07;16.80;86.80
82868;DHT22;72629;51.206;4.424;2023-10-19T02:41:43;16.80;86.80
82868;DHT22;72629;51.206;4.424;2023-10-19T02:44:12;16.80;86.90
82868;DHT22;72629;51.206;4.424;2023-10-19T02:46:54;16.80;86.80
82868;DHT22;72629;51.206;4.424;2023-10-19T02:49:25;16.80;86.80
82868;DHT22;72629;51.206;4.424;2023-10-19T02:51:52;16.80;86.80
82868;DHT22;72629;51.206;4.424;2023-10-19T02:54:22;16.80;86.80
82868;DHT22;72629;51.206;4.424;2023-10-19T02:56:51;16.80;86.60
82868;DHT22;72629;51.206;4.424;2023-10-19T02:59:19;16.90;86.60
82868;DHT22;72629;51.206;4.424;2023-10-19T03:01:55;16.80;86.60
82868;DHT22;72629;51.206;4.424;2023-10-19T03:04:47;16.80;86.70
82868;DHT22;72629;51.206;4.424;2023-10-19T03:07:14;16.70;86.80
82868;DHT22;72629;51.206;4.424;2023-10-19T03:09:41;16.70;86.90
82868;DHT22;72629;51.206;4.424;2023-10-19T03:12:19;16.70;87.10
82868;DHT22;72629;51.206;4.424;2023-10-19T03:14:45;16.70;87.20
82868;DHT22;72629;51.206;4.424;2023-10-19T03:17:13;16.70;87.20
82868;DHT22;72629;51.206;4.424;2023-10-19T03:19:39;16.70;87.30
82868;DHT22;72629;51.206;4.424;2023-10-19T03:22:05;16.70;87.30
82868;DHT22;72629;51.206;4.424;2023-10-19T03:24:34;16.70;87.30
82868;DHT22;72629;51.206;4.424;2023-10-19T03:27:13;16.70;87.10
82868;DHT22;72629;51.206;4.424;2023-10-19T03:29:45;16.70;88.00
82868;DHT22;72629;51.206;4.424;2023-10-19T03:32:12;16.70;88.60
82868;DHT22;72629;51.206;4.424;2023-10-19T03:34:38;16.60;87.50
82868;DHT22;72629;51.206;4.424;2023-10-19T03:37:04;16.70;87.30
82868;DHT22;72629;51.206;4.424;2023-10-19T03:39:37;16.70;87.30
82868;DHT22;72629;51.206;4.424;2023-10-19T03:42:06;16.70;87.20
82868;DHT22;72629;51.206;4.424;2023-10-19T03:44:35;16.60;87.10
82868;DHT22;72629;51.206;4.424;2023-10-19T03:47:12;16.70;87.30
82868;DHT22;72629;51.206;4.424;2023-10-19T03:49:39;16.70;87.10
82868;DHT22;72629;51.206;4.424;2023-10-19T03:52:06;16.70;87.20
82868;DHT22;72629;51.206;4.424;2023-10-19T03:54:36;16.70;87.30
82868;DHT22;72629;51.206;4.424;2023-10-19T03:57:06;16.70;87.00
82868;DHT22;72629;51.206;4.424;2023-10-19T03:59:37;16.60;87.00
82868;DHT22;72629;51.206;4.424;2023-10-19T04:02:03;16.70;87.30
82868;DHT22;72629;51.206;4.424;2023-10-19T04:04:38;16.70;87.20
82868;DHT22;72629;51.206;4.424;2023-10-19T04:07:12;16.70;87.00
82868;DHT22;72629;51.206;4.424;2023-10-19T04:09:48;16.70;86.80
82868;DHT22;72629;51.206;4.424;2023-10-19T04:12:45;16.70;86.70
82868;DHT22;72629;51.206;4.424;2023-10-19T04:15:11;16.70;86.60
82868;DHT22;72629;51.206;4.424;2023-10-19T04:17:41;16.70;86.60
82868;DHT22;72629;51.206;4.424;2023-10-19T04:20:11;16.70;86.40
82868;DHT22;72629;51.206;4.424;2023-10-19T04:22:47;16.70;86.40
82868;DHT22;72629;51.206;4.424;2023-10-19T04:25:14;16.70;86.40
82868;DHT22;72629;51.206;4.424;2023-10-19T04:27:42;16.70;86.40
82868;DHT22;72629;51.206;4.424;2023-10-19T04:30:12;16.70;86.80
82868;DHT22;72629;51.206;4.424;2023-10-19T04:32:53;16.70;86.80
82868;DHT22;72629;51.206;4.424;2023-10-19T04:35:19;16.70;86.70
82868;DHT22;72629;51.206;4.424;2023-10-19T04:37:52;16.80;86.60
82868;DHT22;72629;51.206;4.424;2023-10-19T04:40:18;16.80;86.40
82868;DHT22;72629;51.206;4.424;2023-10-19T04:42:45;16.80;86.60
82868;DHT22;72629;51.206;4.424;2023-10-19T04:45:12;16.80;87.00
82868;DHT22;72629;51.206;4.424;2023-10-19T04:47:38;16.80;86.70
82868;DHT22;72629;51.206;4.424;2023-10-19T04:50:05;16.80;87.00
82868;DHT22;72629;51.206;4.424;2023-10-19T04:52:31;16.80;87.00
82868;DHT22;72629;51.206;4.424;2023-10-19T04:54:57;16.80;87.30
82868;DHT22;72629;51.206;4.424;2023-10-19T04:57:24;16.80;86.80
82868;DHT22;72629;51.206;4.424;2023-10-19T04:59:49;16.80;86.70
82868;DHT22;72629;51.206;4.424;2023-10-19T05:02:15;16.80;86.60
82868;DHT22;72629;51.206;4.424;2023-10-19T05:04:42;16.80;86.60
82868;DHT22;72629;51.206;4.424;2023-10-19T05:07:08;16.80;86.70
82868;DHT22;72629;51.206;4.424;2023-10-19T05:09:37;16.80;86.90
82868;DHT22;72629;51.206;4.424;2023-10-19T05:12:06;16.80;86.80
82868;DHT22;72629;51.206;4.424;2023-10-19T05:14:38;16.80;86.60
82868;DHT22;72629;51.206;4.424;2023-10-19T05:17:08;16.90;86.70
82868;DHT22;72629;51.206;4.424;2023-10-19T05:19:38;16.90;86.70
82868;DHT22;72629;51.206;4.424;2023-10-19T05:22:06;16.90;86.70
82868;DHT22;72629;51.206;4.424;2023-10-19T05:24:33;16.90;86.90
82868;DHT22;72629;51.206;4.424;2023-10-19T05:26:58;16.90;86.70
82868;DHT22;72629;51.206;4.424;2023-10-19T05:29:24;16.90;86.80
82868;DHT22;72629;51.206;4.424;2023-10-19T05:31:51;16.90;86.80
82868;DHT22;72629;51.206;4.424;2023-10-19T05:34:22;16.90;87.10
82868;DHT22;72629;51.206;4.424;2023-10-19T05:36:48;16.80;87.10
82868;DHT22;72629;51.206;4.424;2023-10-19T05:39:15;16.90;87.10
82868;DHT22;72629;51.206;4.424;2023-10-19T05:41:41;16.80;87.20
82868;DHT22;72629;51.206;4.424;2023-10-19T05:44:06;16.80;87.20
82868;DHT22;72629;51.206;4.424;2023-10-19T05:46:32;16.80;87.20
82868;DHT22;72629;51.206;4.424;2023-10-19T05:48:58;16.90;87.10
82868;DHT22;72629;51.206;4.424;2023-10-19T05:51:24;16.80;87.00
82868;DHT22;72629;51.206;4.424;2023-10-19T05:53:50;16.90;86.90
82868;DHT22;72629;51.206;4.424;2023-10-19T05:56:16;16.90;86.90
82868;DHT22;72629;51.206;4.424;2023-10-19T05:58:43;16.90;86.90
82868;DHT22;72629;51.206;4.424;2023-10-19T06:01:10;16.90;86.80
82868;DHT22;72629;51.206;4.424;2023-10-19T06:03:35;16.90;86.90
82868;DHT22;72629;51.206;4.424;2023-10-19T06:06:01;17.00;86.80
82868;DHT22;72629;51.206;4.424;2023-10-19T06:08:26;17.00;86.80
82868;DHT22;72629;51.206;4.424;2023-10-19T06:10:54;16.90;87.00
82868;DHT22;72629;51.206;4.424;2023-10-19T06:13:20;17.00;87.20
82868;DHT22;72629;51.206;4.424;2023-10-19T06:15:48;16.90;87.00
82868;DHT22;72629;51.206;4.424;2023-10-19T06:18:14;17.00;86.90
82868;DHT22;72629;51.206;4.424;2023-10-19T06:20:46;17.00;86.90
82868;DHT22;72629;51.206;4.424;2023-10-19T06:23:12;17.00;87.00
82868;DHT22;72629;51.206;4.424;2023-10-19T06:25:38;17.00;87.00
82868;DHT22;72629;51.206;4.424;2023-10-19T06:28:05;17.00;87.10
82868;DHT22;72629;51.206;4.424;2023-10-19T06:30:32;17.00;87.10
82868;DHT22;72629;51.206;4.424;2023-10-19T06:32:59;17.00;86.90
82868;DHT22;72629;51.206;4.424;2023-10-19T06:35:27;17.00;86.80
82868;DHT22;72629;51.206;4.424;2023-10-19T06:37:54;17.10;86.70
82868;DHT22;72629;51.206;4.424;2023-10-19T06:40:23;17.00;86.70
82868;DHT22;72629;51.206;4.424;2023-10-19T06:42:49;17.10;86.50
82868;DHT22;72629;51.206;4.424;2023-10-19T06:45:18;17.10;86.50
82868;DHT22;72629;51.206;4.424;2023-10-19T06:47:46;17.00;86.80
82868;DHT22;72629;51.206;4.424;2023-10-19T06:50:14;17.00;86.90
82868;DHT22;72629;51.206;4.424;2023-10-19T06:52:42;17.00;87.10
82868;DHT22;72629;51.206;4.424;2023-10-19T06:55:12;17.00;87.30
82868;DHT22;72629;51.206;4.424;2023-10-19T06:57:49;17.00;87.30
82868;DHT22;72629;51.206;4.424;2023-10-19T07:00:17;17.00;87.30
82868;DHT22;72629;51.206;4.424;2023-10-19T07:02:47;17.00;87.40
82868;DHT22;72629;51.206;4.424;2023-10-19T07:05:14;17.00;87.60
82868;DHT22;72629;51.206;4.424;2023-10-19T07:07:44;17.00;87.20
82868;DHT22;72629;51.206;4.424;2023-10-19T07:10:11;17.00;87.10
82868;DHT22;72629;51.206;4.424;2023-10-19T07:12:42;17.00;88.30
82868;DHT22;72629;51.206;4.424;2023-10-19T07:15:08;17.00;87.30
82868;DHT22;72629;51.206;4.424;2023-10-19T07:17:42;17.00;87.10
82868;DHT22;72629;51.206;4.424;2023-10-19T07:20:10;17.00;87.20
82868;DHT22;72629;51.206;4.424;2023-10-19T07:22:47;17.00;87.00
82868;DHT22;72629;51.206;4.424;2023-10-19T07:25:13;17.00;87.10
82868;DHT22;72629;51.206;4.424;2023-10-19T07:27:39;17.00;87.30
82868;DHT22;72629;51.206;4.424;2023-10-19T07:30:08;17.00;87.30
82868;DHT22;72629;51.206;4.424;2023-10-19T07:32:35;17.00;87.20
82868;DHT22;72629;51.206;4.424;2023-10-19T07:35:01;17.10;87.20
82868;DHT22;72629;51.206;4.424;2023-10-19T07:37:26;17.00;87.20
82868;DHT22;72629;51.206;4.424;2023-10-19T07:39:54;17.10;87.30
82868;DHT22;72629;51.206;4.424;2023-10-19T07:42:22;17.10;87.20
82868;DHT22;72629;51.206;4.424;2023-10-19T07:44:48;17.10;87.10
82868;DHT22;72629;51.206;4.424;2023-10-19T07:47:14;17.30;86.60
82868;DHT22;72629;51.206;4.424;2023-10-19T07:49:40;17.30;86.60
82868;DHT22;72629;51.206;4.424;2023-10-19T07:52:06;17.20;86.90
82868;DHT22;72629;51.206;4.424;2023-10-19T07:54:33;17.20;87.00
82868;DHT22;72629;51.206;4.424;2023-10-19T07:56:59;17.20;87.10
82868;DHT22;72629;51.206;4.424;2023-10-19T07:59:29;17.20;86.90
82868;DHT22;72629;51.206;4.424;2023-10-19T08:01:54;17.30;86.80
82868;DHT22;72629;51.206;4.424;2023-10-19T08:04:20;17.30;86.70
82868;DHT22;72629;51.206;4.424;2023-10-19T08:06:45;17.30;86.60
82868;DHT22;72629;51.206;4.424;2023-10-19T08:09:12;17.30;86.60
82868;DHT22;72629;51.206;4.424;2023-10-19T08:11:38;17.30;86.70
82868;DHT22;72629;51.206;4.424;2023-10-19T08:14:04;17.30;86.90
82868;DHT22;72629;51.206;4.424;2023-10-19T08:16:30;17.40;86.80
82868;DHT22;72629;51.206;4.424;2023-10-19T08:18:57;17.40;86.30
82868;DHT22;72629;51.206;4.424;2023-10-19T08:21:23;17.50;86.40
82868;DHT22;72629;51.206;4.424;2023-10-19T08:23:49;17.50;86.40
82868;DHT22;72629;51.206;4.424;2023-10-19T08:26:14;17.50;86.30
82868;DHT22;72629;51.206;4.424;2023-10-19T08:28:40;17.50;86.20
82868;DHT22;72629;51.206;4.424;2023-10-19T08:31:08;17.60;86.20
82868;DHT22;72629;51.206;4.424;2023-10-19T08:33:35;17.60;86.10
82868;DHT22;72629;51.206;4.424;2023-10-19T08:36:04;17.60;85.70
82868;DHT22;72629;51.206;4.424;2023-10-19T08:38:30;17.60;85.50
82868;DHT22;72629;51.206;4.424;2023-10-19T08:40:56;17.70;85.70
82868;DHT22;72629;51.206;4.424;2023-10-19T08:43:23;17.60;85.70
82868;DHT22;72629;51.206;4.424;2023-10-19T08:45:49;17.70;85.50
82868;DHT22;72629;51.206;4.424;2023-10-19T08:48:15;17.70;85.50
82868;DHT22;72629;51.206;4.424;2023-10-19T08:50:41;17.70;85.20
82868;DHT22;72629;51.206;4.424;2023-10-19T08:53:08;17.70;85.00
82868;DHT22;72629;51.206;4.424;2023-10-19T08:55:34;17.80;84.90
82868;DHT22;72629;51.206;4.424;2023-10-19T08:58:00;17.70;84.70
82868;DHT22;72629;51.206;4.424;2023-10-19T09:00:26;17.80;84.60
82868;DHT22;72629;51.206;4.424;2023-10-19T09:02:53;17.80;84.60
82868;DHT22;72629;51.206;4.424;2023-10-19T09:05:20;17.80;84.70
82868;DHT22;72629;51.206;4.424;2023-10-19T09:07:47;17.80;84.70
82868;DHT22;72629;51.206;4.424;2023-10-19T09:10:18;17.80;84.60
82868;DHT22;72629;51.206;4.424;2023-10-19T09:12:44;17.90;84.50
82868;DHT22;72629;51.206;4.424;2023-10-19T09:15:22;17.90;84.20
82868;DHT22;72629;51.206;4.424;2023-10-19T09:17:52;17.90;84.40
82868;DHT22;72629;51.206;4.424;2023-10-19T09:20:20;17.90;84.40
82868;DHT22;72629;51.206;4.424;2023-10-19T09:22:55;18.00;84.40
82868;DHT22;72629;51.206;4.424;2023-10-19T09:25:23;18.00;84.40
82868;DHT22;72629;51.206;4.424;2023-10-19T09:27:50;18.00;84.40
82868;DHT22;72629;51.206;4.424;2023-10-19T09:30:17;18.10;83.80
82868;DHT22;72629;51.206;4.424;2023-10-19T09:32:48;18.10;84.20
82868;DHT22;72629;51.206;4.424;2023-10-19T09:35:15;18.10;83.90
82868;DHT22;72629;51.206;4.424;2023-10-19T09:37:44;18.10;83.90
82868;DHT22;72629;51.206;4.424;2023-10-19T09:40:10;18.10;84.00
82868;DHT22;72629;51.206;4.424;2023-10-19T09:42:47;18.10;84.00
82868;DHT22;72629;51.206;4.424;2023-10-19T09:45:18;18.10;83.90
82868;DHT22;72629;51.206;4.424;2023-10-19T09:47:49;18.10;83.60
82868;DHT22;72629;51.206;4.424;2023-10-19T09:50:15;18.20;84.40
82868;DHT22;72629;51.206;4.424;2023-10-19T09:52:41;18.20;83.40
82868;DHT22;72629;51.206;4.424;2023-10-19T09:57:50;18.20;83.10
82868;DHT22;72629;51.206;4.424;2023-10-19T10:00:17;18.20;82.70
82868;DHT22;72629;51.206;4.424;2023-10-19T10:02:50;18.20;83.10
82868;DHT22;72629;51.206;4.424;2023-10-19T10:10:44;18.20;83.50
82868;DHT22;72629;51.206;4.424;2023-10-19T10:13:43;18.20;83.40
82868;DHT22;72629;51.206;4.424;2023-10-19T10:16:13;18.20;83.60
82868;DHT22;72629;51.206;4.424;2023-10-19T10:18:41;18.20;83.50
82868;DHT22;72629;51.206;4.424;2023-10-19T10:21:11;18.20;83.30
82868;DHT22;72629;51.206;4.424;2023-10-19T10:23:56;18.20;84.30
82868;DHT22;72629;51.206;4.424;2023-10-19T10:26:27;18.20;83.10
82868;DHT22;72629;51.206;4.424;2023-10-19T10:29:21;18.20;82.80
82868;DHT22;72629;51.206;4.424;2023-10-19T10:31:49;18.20;82.90
82868;DHT22;72629;51.206;4.424;2023-10-19T10:37:01;18.20;82.60
82868;DHT22;72629;51.206;4.424;2023-10-19T10:39:28;18.20;82.70
82868;DHT22;72629;51.206;4.424;2023-10-19T10:42:00;18.30;82.90
82868;DHT22;72629;51.206;4.424;2023-10-19T10:44:39;18.30;82.90
82868;DHT22;72629;51.206;4.424;2023-10-19T10:47:10;18.40;84.00
82868;DHT22;72629;51.206;4.424;2023-10-19T10:49:59;18.40;82.70
82868;DHT22;72629;51.206;4.424;2023-10-19T10:52:32;18.50;82.40
82868;DHT22;72629;51.206;4.424;2023-10-19T10:55:09;18.50;82.20
82868;DHT22;72629;51.206;4.424;2023-10-19T10:57:37;18.50;82.00
82868;DHT22;72629;51.206;4.424;2023-10-19T11:02:34;18.60;81.50
82868;DHT22;72629;51.206;4.424;2023-10-19T11:05:00;18.50;82.00
82868;DHT22;72629;51.206;4.424;2023-10-19T11:07:26;18.50;82.30
82868;DHT22;72629;51.206;4.424;2023-10-19T11:09:52;18.40;82.30
82868;DHT22;72629;51.206;4.424;2023-10-19T11:12:17;18.40;82.60
82868;DHT22;72629;51.206;4.424;2023-10-19T11:14:55;18.40;82.70
82868;DHT22;72629;51.206;4.424;2023-10-19T11:17:21;18.30;83.20
82868;DHT22;72629;51.206;4.424;2023-10-19T11:19:55;18.40;82.60
82868;DHT22;72629;51.206;4.424;2023-10-19T11:22:22;18.40;82.80
82868;DHT22;72629;51.206;4.424;2023-10-19T11:24:50;18.40;82.80
82868;DHT22;72629;51.206;4.424;2023-10-19T11:29:56;18.40;83.00
82868;DHT22;72629;51.206;4.424;2023-10-19T11:32:22;18.30;83.00
82868;DHT22;72629;51.206;4.424;2023-10-19T11:34:59;18.40;83.60
82868;DHT22;72629;51.206;4.424;2023-10-19T11:37:25;18.30;84.40
82868;DHT22;72629;51.206;4.424;2023-10-19T11:39:50;18.20;85.30
82868;DHT22;72629;51.206;4.424;2023-10-19T11:42:17;18.10;85.60
82868;DHT22;72629;51.206;4.424;2023-10-19T11:44:44;18.00;86.90
82868;DHT22;72629;51.206;4.424;2023-10-19T11:47:10;17.80;87.80
82868;DHT22;72629;51.206;4.424;2023-10-19T11:49:36;17.80;88.40
82868;DHT22;72629;51.206;4.424;2023-10-19T11:52:08;17.80;88.90
82868;DHT22;72629;51.206;4.424;2023-10-19T11:54:34;17.70;89.10
82868;DHT22;72629;51.206;4.424;2023-10-19T11:57:00;17.80;88.60
82868;DHT22;72629;51.206;4.424;2023-10-19T11:59:25;18.00;87.70
82868;DHT22;72629;51.206;4.424;2023-10-19T12:01:52;18.00;87.60
82868;DHT22;72629;51.206;4.424;2023-10-19T12:04:18;18.00;87.80
82868;DHT22;72629;51.206;4.424;2023-10-19T12:06:44;18.10;87.40
82868;DHT22;72629;51.206;4.424;2023-10-19T12:09:13;18.10;87.60
82868;DHT22;72629;51.206;4.424;2023-10-19T12:11:42;18.20;87.30
82868;DHT22;72629;51.206;4.424;2023-10-19T12:14:07;18.20;86.90
82868;DHT22;72629;51.206;4.424;2023-10-19T12:16:41;18.10;86.90
82868;DHT22;72629;51.206;4.424;2023-10-19T12:19:06;18.10;86.90
82868;DHT22;72629;51.206;4.424;2023-10-19T12:21:35;18.10;87.30
82868;DHT22;72629;51.206;4.424;2023-10-19T12:24:03;18.10;87.10
82868;DHT22;72629;51.206;4.424;2023-10-19T12:26:30;18.10;87.30
82868;DHT22;72629;51.206;4.424;2023-10-19T12:28:56;18.00;88.00
82868;DHT22;72629;51.206;4.424;2023-10-19T12:31:22;18.10;87.80
82868;DHT22;72629;51.206;4.424;2023-10-19T12:33:49;18.10;88.10
82868;DHT22;72629;51.206;4.424;2023-10-19T12:36:15;18.10;88.30
82868;DHT22;72629;51.206;4.424;2023-10-19T12:38:52;18.10;88.50
82868;DHT22;72629;51.206;4.424;2023-10-19T12:41:20;18.00;88.90
82868;DHT22;72629;51.206;4.424;2023-10-19T12:43:47;17.90;89.40
82868;DHT22;72629;51.206;4.424;2023-10-19T12:46:13;17.90;89.80
82868;DHT22;72629;51.206;4.424;2023-10-19T12:48:43;17.80;90.20
82868;DHT22;72629;51.206;4.424;2023-10-19T12:51:08;17.80;90.20
82868;DHT22;72629;51.206;4.424;2023-10-19T12:53:38;17.80;90.00
82868;DHT22;72629;51.206;4.424;2023-10-19T12:56:06;17.90;89.50
82868;DHT22;72629;51.206;4.424;2023-10-19T12:58:33;17.90;89.50
82868;DHT22;72629;51.206;4.424;2023-10-19T13:00:59;17.90;89.70
82868;DHT22;72629;51.206;4.424;2023-10-19T13:03:25;17.90;89.80
82868;DHT22;72629;51.206;4.424;2023-10-19T13:05:56;17.80;90.20
82868;DHT22;72629;51.206;4.424;2023-10-19T13:08:23;17.80;90.30
82868;DHT22;72629;51.206;4.424;2023-10-19T13:10:53;17.80;90.30
82868;DHT22;72629;51.206;4.424;2023-10-19T13:13:19;17.70;90.60
82868;DHT22;72629;51.206;4.424;2023-10-19T13:15:49;17.80;90.70
82868;DHT22;72629;51.206;4.424;2023-10-19T13:18:15;17.90;90.60
82868;DHT22;72629;51.206;4.424;2023-10-19T13:20:48;17.80;90.50
82868;DHT22;72629;51.206;4.424;2023-10-19T13:23:14;17.80;90.40
82868;DHT22;72629;51.206;4.424;2023-10-19T13:25:47;18.00;90.30
82868;DHT22;72629;51.206;4.424;2023-10-19T13:28:19;18.10;90.20
82868;DHT22;72629;51.206;4.424;2023-10-19T13:30:50;18.40;90.00
82868;DHT22;72629;51.206;4.424;2023-10-19T13:33:17;18.80;88.90
82868;DHT22;72629;51.206;4.424;2023-10-19T13:35:45;19.20;87.50
82868;DHT22;72629;51.206;4.424;2023-10-19T13:38:11;19.50;85.20
82868;DHT22;72629;51.206;4.424;2023-10-19T13:40:41;20.00;84.20
82868;DHT22;72629;51.206;4.424;2023-10-19T13:43:08;20.30;82.00
82868;DHT22;72629;51.206;4.424;2023-10-19T13:45:35;20.30;81.20
82868;DHT22;72629;51.206;4.424;2023-10-19T13:48:04;20.30;80.80
82868;DHT22;72629;51.206;4.424;2023-10-19T13:50:31;20.60;79.70
82868;DHT22;72629;51.206;4.424;2023-10-19T13:52:57;20.50;79.40
82868;DHT22;72629;51.206;4.424;2023-10-19T13:55:23;20.40;79.40
82868;DHT22;72629;51.206;4.424;2023-10-19T13:57:50;20.10;79.80
82868;DHT22;72629;51.206;4.424;2023-10-19T14:00:17;19.80;81.30
82868;DHT22;72629;51.206;4.424;2023-10-19T14:03:03;19.70;82.40
82868;DHT22;72629;51.206;4.424;2023-10-19T14:05:38;19.60;83.20
82868;DHT22;72629;51.206;4.424;2023-10-19T14:08:06;19.70;83.20
82868;DHT22;72629;51.206;4.424;2023-10-19T14:10:33;19.70;82.90
82868;DHT22;72629;51.206;4.424;2023-10-19T14:13:00;19.80;83.00
82868;DHT22;72629;51.206;4.424;2023-10-19T14:15:26;19.70;82.30
82868;DHT22;72629;51.206;4.424;2023-10-19T14:17:55;19.60;82.80
82868;DHT22;72629;51.206;4.424;2023-10-19T14:20:21;19.50;82.90
82868;DHT22;72629;51.206;4.424;2023-10-19T14:22:51;19.50;83.00
82868;DHT22;72629;51.206;4.424;2023-10-19T14:25:19;19.50;83.00
82868;DHT22;72629;51.206;4.424;2023-10-19T14:27:47;19.50;83.10
82868;DHT22;72629;51.206;4.424;2023-10-19T14:30:16;19.50;83.40
82868;DHT22;72629;51.206;4.424;2023-10-19T14:32:46;19.40;83.60
82868;DHT22;72629;51.206;4.424;2023-10-19T14:35:16;19.40;83.80
82868;DHT22;72629;51.206;4.424;2023-10-19T14:37:47;19.40;83.30
82868;DHT22;72629;51.206;4.424;2023-10-19T14:40:20;19.40;83.50
82868;DHT22;72629;51.206;4.424;2023-10-19T14:42:47;19.30;83.80
82868;DHT22;72629;51.206;4.424;2023-10-19T14:45:16;19.40;83.80
82868;DHT22;72629;51.206;4.424;2023-10-19T14:47:52;19.40;83.50
82868;DHT22;72629;51.206;4.424;2023-10-19T14:50:18;19.40;83.70
82868;DHT22;72629;51.206;4.424;2023-10-19T14:52:46;19.20;83.50
82868;DHT22;72629;51.206;4.424;2023-10-19T14:55:13;19.20;83.70
82868;DHT22;72629;51.206;4.424;2023-10-19T14:57:43;19.20;84.10
82868;DHT22;72629;51.206;4.424;2023-10-19T15:00:10;19.10;84.00
82868;DHT22;72629;51.206;4.424;2023-10-19T15:02:56;19.00;84.40
82868;DHT22;72629;51.206;4.424;2023-10-19T15:05:27;19.00;84.70
82868;DHT22;72629;51.206;4.424;2023-10-19T15:07:53;19.00;84.90
82868;DHT22;72629;51.206;4.424;2023-10-19T15:10:26;19.10;84.40
82868;DHT22;72629;51.206;4.424;2023-10-19T15:12:53;19.10;84.40
82868;DHT22;72629;51.206;4.424;2023-10-19T15:15:20;19.20;84.00
82868;DHT22;72629;51.206;4.424;2023-10-19T15:17:46;19.10;84.00
82868;DHT22;72629;51.206;4.424;2023-10-19T15:20:14;19.20;83.70
82868;DHT22;72629;51.206;4.424;2023-10-19T15:22:41;19.10;83.10
82868;DHT22;72629;51.206;4.424;2023-10-19T15:25:07;19.10;83.40
82868;DHT22;72629;51.206;4.424;2023-10-19T15:27:35;19.20;83.20
82868;DHT22;72629;51.206;4.424;2023-10-19T15:30:02;19.20;83.20
82868;DHT22;72629;51.206;4.424;2023-10-19T15:32:28;19.20;83.10
82868;DHT22;72629;51.206;4.424;2023-10-19T15:34:56;19.20;83.00
82868;DHT22;72629;51.206;4.424;2023-10-19T15:37:22;19.20;82.90
82868;DHT22;72629;51.206;4.424;2023-10-19T15:39:49;19.30;82.70
82868;DHT22;72629;51.206;4.424;2023-10-19T15:42:15;19.20;82.80
82868;DHT22;72629;51.206;4.424;2023-10-19T15:44:43;19.10;83.00
82868;DHT22;72629;51.206;4.424;2023-10-19T15:47:09;19.20;83.00
82868;DHT22;72629;51.206;4.424;2023-10-19T15:49:52;19.10;83.10
82868;DHT22;72629;51.206;4.424;2023-10-19T15:52:19;18.90;83.70
82868;DHT22;72629;51.206;4.424;2023-10-19T15:54:48;18.90;84.10
82868;DHT22;72629;51.206;4.424;2023-10-19T15:57:14;18.80;84.40
82868;DHT22;72629;51.206;4.424;2023-10-19T15:59:44;18.80;84.20
82868;DHT22;72629;51.206;4.424;2023-10-19T16:02:14;18.80;84.40